Kell, Illinois
Current Conditions -  °F | °C
As of 2:55 AM on Wednesday 26 Nov 2014 (Local Time) from KENL Reporting Station
Clear Clear  
Wind Chill: 25°   Ceiling: Unl
Heat Index: 25°   Visibility: 10mi
Dew Point: 22°   Wind: 3mph
Humidity: 89%   Direction: 110°ESE
Pressure: 30.14"   Gusts: NA
Location:  38.49°N, 88.91°W
Report Text: KENL 260855Z AUTO 11003KT 10SM CLR M04/M05 A3014 RMK AO2 T10401055
Loading
Personal Weather Stations






























Interactive Weather Map New forecast layout! Learn more

10-Day Weather Forecast

Advertisements
Track Severe Weather on mobile